createdAt,value
2019-04-20T00:00:56.030Z,44.80
2019-04-20T00:03:23.700Z,44.62
2019-04-20T00:05:52.988Z,44.71
2019-04-20T00:08:25.188Z,44.63
2019-04-20T00:10:57.018Z,44.66
2019-04-20T00:13:32.317Z,44.63
2019-04-20T00:15:51.349Z,44.71
2019-04-20T00:18:19.209Z,44.89
2019-04-20T00:20:57.566Z,44.91
2019-04-20T00:23:33.444Z,45.23
2019-04-20T00:26:52.128Z,45.19
2019-04-20T00:29:10.338Z,45.39
2019-04-20T00:31:38.067Z,45.48
2019-04-20T00:34:02.411Z,45.37
2019-04-20T00:36:22.212Z,45.53
2019-04-20T00:38:53.627Z,45.42
2019-04-20T00:41:20.744Z,45.90
2019-04-20T00:43:49.153Z,46.31
2019-04-20T00:46:26.354Z,46.70
2019-04-20T00:48:57.231Z,47.93
2019-04-20T00:51:32.672Z,48.25
2019-04-20T00:53:48.989Z,48.26
2019-04-20T00:56:14.139Z,48.18
2019-04-20T00:58:52.299Z,47.90
2019-04-20T01:01:32.197Z,47.44
2019-04-20T01:04:04.587Z,46.94
2019-04-20T01:06:41.185Z,46.73
2019-04-20T01:09:05.509Z,46.51
2019-04-20T01:11:39.953Z,46.57
2019-04-20T01:14:09.403Z,46.52
2019-04-20T01:16:43.133Z,46.86
2019-04-20T01:19:04.744Z,47.60
2019-04-20T01:21:33.882Z,48.01
2019-04-20T01:24:04.927Z,47.99
2019-04-20T01:26:34.663Z,48.04
2019-04-20T01:29:12.160Z,47.42
2019-04-20T01:31:38.531Z,46.80
2019-04-20T01:34:08.251Z,46.46
2019-04-20T01:36:46.151Z,46.22
2019-04-20T01:39:11.168Z,46.23
2019-04-20T01:41:31.252Z,46.33
2019-04-20T01:43:58.556Z,46.76
2019-04-20T01:46:28.360Z,47.58
2019-04-20T01:48:54.884Z,47.98
2019-04-20T01:51:26.975Z,48.09
2019-04-20T01:54:14.785Z,48.19
2019-04-20T01:56:40.411Z,48.52
2019-04-20T01:59:44.812Z,48.39
2019-04-20T02:02:47.394Z,48.05
2019-04-20T02:05:17.952Z,47.67
2019-04-20T02:07:46.585Z,47.88
2019-04-20T02:10:14.752Z,48.32
2019-04-20T02:12:42.293Z,48.49
2019-04-20T02:15:20.043Z,48.72
2019-04-20T02:17:46.692Z,49.01
2019-04-20T02:20:31.913Z,49.04
2019-04-20T02:22:55.352Z,49.14
2019-04-20T02:25:12.159Z,48.88
2019-04-20T02:27:47.150Z,49.11
2019-04-20T02:30:39.632Z,49.30
2019-04-20T02:33:37.882Z,49.53
2019-04-20T02:39:05.550Z,49.72
2019-04-20T02:41:27.569Z,49.75
2019-04-20T02:43:57.694Z,49.92
2019-04-20T02:46:09.001Z,49.49
2019-04-20T02:48:41.600Z,49.85
2019-04-20T02:51:09.054Z,49.60
2019-04-20T02:53:57.478Z,49.29
2019-04-20T02:58:41.702Z,49.12
2019-04-20T03:01:05.078Z,49.28
2019-04-20T03:03:22.551Z,49.27
2019-04-20T03:05:52.056Z,49.01
2019-04-20T03:08:29.346Z,48.89
2019-04-20T03:11:05.832Z,48.78
2019-04-20T03:13:26.204Z,48.79
2019-04-20T03:15:56.436Z,48.76
2019-04-20T03:18:27.664Z,48.80
2019-04-20T03:21:00.790Z,48.68
2019-04-20T03:23:29.825Z,48.76
2019-04-20T03:26:06.434Z,48.60
2019-04-20T03:29:01.355Z,48.49
2019-04-20T03:32:08.512Z,48.45
2019-04-20T03:34:38.461Z,48.75
2019-04-20T03:36:50.042Z,48.61
2019-04-20T03:39:11.500Z,48.44
2019-04-20T03:41:26.401Z,48.67
2019-04-20T03:43:47.747Z,48.95
2019-04-20T03:46:19.958Z,49.20
2019-04-20T03:48:59.914Z,48.80
2019-04-20T03:51:40.143Z,48.55
2019-04-20T03:54:18.425Z,48.19
2019-04-20T03:57:21.251Z,48.28
2019-04-20T03:59:56.108Z,48.28
2019-04-20T04:03:08.303Z,47.78
2019-04-20T04:05:34.142Z,47.92
2019-04-20T04:07:58.019Z,47.50
2019-04-20T04:10:28.343Z,47.28
2019-04-20T04:13:22.925Z,46.71
2019-04-20T04:15:57.588Z,46.73
2019-04-20T04:18:29.136Z,46.36
2019-04-20T04:20:58.155Z,46.51
2019-04-20T04:23:36.624Z,46.53
2019-04-20T04:26:15.034Z,46.25
2019-04-20T04:28:37.224Z,46.14
2019-04-20T04:31:08.171Z,45.86
2019-04-20T04:36:00.362Z,45.42
2019-04-20T04:38:37.361Z,45.08
2019-04-20T04:41:11.232Z,45.16
2019-04-20T04:43:34.209Z,44.65
2019-04-20T04:45:41.075Z,44.88
2019-04-20T04:48:16.763Z,45.22
2019-04-20T04:50:48.334Z,45.31
2019-04-20T04:53:17.057Z,45.21
2019-04-20T04:55:47.702Z,45.21
2019-04-20T04:58:14.879Z,45.38
2019-04-20T05:00:51.545Z,45.92
2019-04-20T05:03:45.007Z,46.01
2019-04-20T05:06:35.511Z,46.52
2019-04-20T05:08:56.827Z,46.19
2019-04-20T05:11:21.813Z,45.93
2019-04-20T05:13:56.909Z,45.51
2019-04-20T05:16:43.469Z,44.79
2019-04-20T05:19:13.472Z,45.07
2019-04-20T05:22:11.077Z,44.72
2019-04-20T05:24:43.959Z,44.02
2019-04-20T05:27:51.051Z,43.80
2019-04-20T05:30:01.518Z,44.81
2019-04-20T05:32:39.684Z,44.95
2019-04-20T05:35:25.501Z,45.51
2019-04-20T05:37:59.198Z,44.88
2019-04-20T05:40:16.470Z,44.72
2019-04-20T05:42:54.140Z,44.05
2019-04-20T05:45:16.492Z,44.36
2019-04-20T05:47:48.378Z,44.49
2019-04-20T05:50:15.235Z,43.98
2019-04-20T05:55:16.218Z,43.72
2019-04-20T05:57:51.876Z,43.62
2019-04-20T06:00:23.337Z,43.89
2019-04-20T06:02:46.824Z,42.84
2019-04-20T06:05:36.475Z,44.15
2019-04-20T06:07:48.801Z,43.00
2019-04-20T06:10:20.801Z,43.31
2019-04-20T06:12:49.883Z,43.90
2019-04-20T06:15:26.458Z,44.35
2019-04-20T06:18:13.541Z,43.01
2019-04-20T06:20:50.898Z,43.00
2019-04-20T06:23:59.329Z,42.29
2019-04-20T06:27:16.027Z,42.85
2019-04-20T06:29:31.036Z,41.96
2019-04-20T06:32:17.333Z,41.84
2019-04-20T06:34:51.323Z,41.55
2019-04-20T06:49:33.306Z,40.48
2019-04-20T06:52:24.373Z,39.28
2019-04-20T06:55:28.989Z,39.69
2019-04-20T06:57:45.462Z,40.06
2019-04-20T07:02:53.963Z,38.47
2019-04-20T07:05:25.998Z,37.61
2019-04-20T07:08:48.915Z,35.55
2019-04-20T07:11:13.532Z,36.60
2019-04-20T07:13:30.883Z,36.02
2019-04-20T07:16:21.373Z,34.81
2019-04-20T07:19:25.942Z,34.88
2019-04-20T07:22:25.327Z,34.86
2019-04-20T07:24:50.846Z,33.92
2019-04-20T07:27:22.886Z,34.28
2019-04-20T07:32:19.491Z,33.49
2019-04-20T07:34:54.021Z,33.51
2019-04-20T07:39:58.897Z,31.78
2019-04-20T07:42:32.837Z,31.31
2019-04-20T07:45:01.562Z,30.82
2019-04-20T07:47:34.476Z,31.05
2019-04-20T07:49:50.026Z,30.89
2019-04-20T07:52:02.151Z,30.30
2019-04-20T07:55:12.452Z,30.67
2019-04-20T07:57:21.542Z,29.79
2019-04-20T07:59:50.955Z,28.43
2019-04-20T08:02:48.845Z,28.09
2019-04-20T08:05:10.675Z,28.31
2019-04-20T08:07:39.208Z,27.78
2019-04-20T08:10:02.897Z,28.32
2019-04-20T08:12:55.903Z,26.91
2019-04-20T08:15:34.060Z,27.29
2019-04-20T08:17:56.352Z,27.55
2019-04-20T08:20:20.772Z,27.32
2019-04-20T08:22:55.313Z,27.99
2019-04-20T08:25:14.234Z,27.10
2019-04-20T08:27:48.816Z,27.36
2019-04-20T08:30:42.363Z,27.53
2019-04-20T08:33:19.627Z,27.11
2019-04-20T08:36:02.794Z,27.41
2019-04-20T08:38:51.130Z,27.16
2019-04-20T08:40:53.901Z,27.56
2019-04-20T08:43:38.235Z,26.81
2019-04-20T08:45:51.045Z,27.01
2019-04-20T08:48:25.762Z,26.49
2019-04-20T08:50:51.340Z,27.27
2019-04-20T08:53:27.686Z,26.44
2019-04-20T08:55:45.057Z,26.13
2019-04-20T08:58:02.702Z,25.91
2019-04-20T09:00:41.779Z,25.24
2019-04-20T09:03:15.311Z,25.32
2019-04-20T09:05:45.578Z,25.35
2019-04-20T09:08:11.021Z,25.01
2019-04-20T09:10:49.238Z,25.63
2019-04-20T09:13:15.921Z,25.82
2019-04-20T09:15:34.185Z,26.03
2019-04-20T09:18:13.940Z,25.42
2019-04-20T09:20:48.714Z,24.98
2019-04-20T09:23:36.309Z,24.43
2019-04-20T09:26:26.571Z,24.40
2019-04-20T09:28:59.297Z,24.21
2019-04-20T09:31:39.254Z,24.42
2019-04-20T09:34:40.324Z,24.89
2019-04-20T09:37:41.425Z,24.87
2019-04-20T09:40:00.936Z,25.38
2019-04-20T09:42:21.488Z,25.74
2019-04-20T09:44:55.986Z,25.34
2019-04-20T09:47:28.327Z,24.59
2019-04-20T09:50:02.717Z,23.92
2019-04-20T09:52:31.349Z,23.10
2019-04-20T09:55:03.121Z,23.62
2019-04-20T09:57:34.070Z,22.60
2019-04-20T10:00:01.712Z,20.68
2019-04-20T10:02:22.017Z,21.05
2019-04-20T10:04:43.954Z,20.20
2019-04-20T10:07:15.992Z,20.24
2019-04-20T10:09:44.853Z,19.79
2019-04-20T10:12:09.566Z,19.80
2019-04-20T10:14:36.733Z,20.23
2019-04-20T10:17:03.808Z,19.08
2019-04-20T10:19:34.652Z,17.40
2019-04-20T10:22:02.514Z,16.75
2019-04-20T10:24:30.657Z,15.50
2019-04-20T10:26:58.784Z,14.56
2019-04-20T10:29:27.890Z,14.86
2019-04-20T10:31:58.647Z,15.02
2019-04-20T10:34:24.296Z,14.60
2019-04-20T10:37:11.449Z,14.88
2019-04-20T10:39:40.558Z,14.42
2019-04-20T10:42:08.147Z,15.33
2019-04-20T10:44:36.607Z,14.73
2019-04-20T10:47:05.048Z,14.77
2019-04-20T10:49:33.375Z,14.44
2019-04-20T10:52:01.956Z,13.75
2019-04-20T10:54:32.363Z,13.66
2019-04-20T10:57:01.417Z,15.50
2019-04-20T10:59:29.814Z,15.39
2019-04-20T11:01:59.671Z,15.83
2019-04-20T11:04:28.421Z,15.67
2019-04-20T11:06:56.668Z,14.72
2019-04-20T11:09:27.324Z,14.34
2019-04-20T11:11:54.505Z,14.59
2019-04-20T11:14:28.141Z,14.02
2019-04-20T11:16:52.280Z,13.93
2019-04-20T11:19:21.123Z,13.93
2019-04-20T11:21:50.318Z,12.21
2019-04-20T11:24:32.272Z,10.72
2019-04-20T11:27:18.354Z,10.74
2019-04-20T11:29:46.773Z,11.23
2019-04-20T11:32:14.313Z,12.56
2019-04-20T11:34:42.473Z,12.25
2019-04-20T11:37:15.278Z,12.83
2019-04-20T11:39:43.159Z,11.73
2019-04-20T11:42:19.555Z,12.11
2019-04-20T11:44:50.831Z,12.16
2019-04-20T11:47:18.937Z,13.38
2019-04-20T11:49:49.497Z,12.18
2019-04-20T11:52:21.127Z,11.75
2019-04-20T11:54:54.727Z,11.48
2019-04-20T11:57:27.169Z,11.23
2019-04-20T11:59:55.038Z,11.06
2019-04-20T12:02:37.126Z,11.53
2019-04-20T12:05:19.883Z,12.43
2019-04-20T12:07:55.755Z,11.68
2019-04-20T12:10:26.389Z,11.18
2019-04-20T12:12:55.625Z,12.07
2019-04-20T12:15:32.188Z,11.73
2019-04-20T12:17:59.868Z,11.25
2019-04-20T12:20:29.058Z,10.37
2019-04-20T12:23:00.292Z,9.94
2019-04-20T12:25:28.198Z,10.70
2019-04-20T12:28:00.136Z,11.87
2019-04-20T12:30:29.968Z,12.84
2019-04-20T12:33:02.186Z,12.55
2019-04-20T12:35:32.091Z,12.53
2019-04-20T12:37:59.190Z,11.85
2019-04-20T12:40:28.378Z,10.34
2019-04-20T12:42:59.229Z,11.28
2019-04-20T12:45:33.557Z,10.10
2019-04-20T12:48:04.006Z,9.88
2019-04-20T12:50:37.344Z,9.72
2019-04-20T12:53:04.658Z,9.51
2019-04-20T12:55:32.598Z,10.31
2019-04-20T12:58:02.845Z,10.07
2019-04-20T13:00:41.711Z,9.76
2019-04-20T13:03:09.536Z,10.03
2019-04-20T13:05:38.077Z,9.83
2019-04-20T13:08:07.972Z,9.92
2019-04-20T13:10:37.629Z,10.53
2019-04-20T13:13:28.189Z,10.22
2019-04-20T13:16:08.200Z,10.53
2019-04-20T13:18:41.144Z,10.84
2019-04-20T13:21:09.298Z,10.96
2019-04-20T13:23:37.270Z,11.16
2019-04-20T13:26:09.223Z,9.97
2019-04-20T13:28:37.068Z,9.29
2019-04-20T13:31:05.986Z,9.88
2019-04-20T13:33:35.029Z,9.35
2019-04-20T13:36:04.059Z,9.72
2019-04-20T13:38:32.037Z,9.11
2019-04-20T13:40:59.860Z,9.11
2019-04-20T13:43:27.933Z,8.91
2019-04-20T13:45:55.199Z,9.55
2019-04-20T13:48:22.414Z,10.14
2019-04-20T13:50:49.759Z,9.40
2019-04-20T13:53:17.239Z,10.43
2019-04-20T13:55:45.475Z,10.15
2019-04-20T13:58:33.932Z,10.53
2019-04-20T14:01:23.370Z,10.74
2019-04-20T14:04:05.273Z,9.64
2019-04-20T14:06:33.167Z,9.06
2019-04-20T14:09:01.283Z,9.18
2019-04-20T14:11:31.542Z,9.83
2019-04-20T14:14:01.463Z,9.77
2019-04-20T14:16:27.526Z,10.82
2019-04-20T14:18:57.010Z,9.39
2019-04-20T14:21:24.245Z,8.78
2019-04-20T14:23:51.316Z,9.09
2019-04-20T14:26:18.855Z,10.41
2019-04-20T14:28:49.355Z,8.96
2019-04-20T14:31:16.774Z,6.97
2019-04-20T14:33:44.620Z,6.97
2019-04-20T14:36:13.061Z,8.46
2019-04-20T14:38:40.262Z,9.12
2019-04-20T14:41:08.460Z,10.00
2019-04-20T14:43:37.008Z,9.47
2019-04-20T14:46:05.066Z,8.65
2019-04-20T14:48:32.691Z,8.19
2019-04-20T14:50:59.823Z,9.17
2019-04-20T14:53:29.485Z,9.83
2019-04-20T14:55:59.703Z,9.79
2019-04-20T14:58:45.335Z,10.50
2019-04-20T15:01:26.862Z,10.15
2019-04-20T15:04:02.820Z,10.77
2019-04-20T15:06:23.430Z,10.34
2019-04-20T15:09:10.764Z,9.84
2019-04-20T15:11:41.752Z,10.06
2019-04-20T15:14:11.086Z,10.23
2019-04-20T15:16:38.610Z,10.50
2019-04-20T15:22:33.848Z,10.14
2019-04-20T15:25:01.420Z,9.53
2019-04-20T15:27:28.675Z,8.79
2019-04-20T15:29:56.144Z,7.93
2019-04-20T15:32:24.942Z,8.52
2019-04-20T15:34:53.105Z,9.25
2019-04-20T15:37:30.988Z,9.53
2019-04-20T15:39:59.050Z,9.25
2019-04-20T15:42:27.514Z,10.19
2019-04-20T15:44:58.132Z,8.94
2019-04-20T15:47:32.034Z,8.39
2019-04-20T15:50:07.704Z,8.53
2019-04-20T15:52:44.595Z,8.55
2019-04-20T15:55:17.001Z,8.81
2019-04-20T15:57:44.825Z,9.55
2019-04-20T16:00:14.365Z,10.54
2019-04-20T16:02:49.574Z,11.13
2019-04-20T16:05:47.215Z,10.22
2019-04-20T16:08:46.056Z,9.59
2019-04-20T16:11:13.460Z,9.01
2019-04-20T16:13:44.708Z,10.55
2019-04-20T16:16:12.162Z,10.97
2019-04-20T16:18:41.474Z,10.89
2019-04-20T16:21:15.610Z,10.46
2019-04-20T16:24:06.537Z,10.58
2019-04-20T16:26:49.617Z,10.15
2019-04-20T16:29:19.523Z,10.01
2019-04-20T16:31:49.059Z,10.72
2019-04-20T16:34:25.969Z,11.65
2019-04-20T16:36:56.456Z,12.60
2019-04-20T16:39:25.182Z,12.81
2019-04-20T16:41:52.322Z,12.57
2019-04-20T16:44:19.354Z,12.31
2019-04-20T16:46:50.180Z,12.46
2019-04-20T16:49:19.138Z,13.71
2019-04-20T16:51:47.653Z,12.79
2019-04-20T16:54:15.876Z,12.25
2019-04-20T16:56:44.535Z,11.78
2019-04-20T16:59:14.202Z,11.93
2019-04-20T17:01:42.583Z,12.33
2019-04-20T17:04:15.411Z,12.52
2019-04-20T17:06:47.778Z,13.29
2019-04-20T17:09:16.226Z,13.04
2019-04-20T17:11:43.776Z,13.24
2019-04-20T17:14:14.817Z,12.90
2019-04-20T17:16:45.946Z,13.28
2019-04-20T17:19:13.528Z,14.03
2019-04-20T17:22:15.246Z,14.68
2019-04-20T17:24:49.440Z,14.19
2019-04-20T17:27:44.619Z,14.83
2019-04-20T17:30:39.968Z,15.42
2019-04-20T17:33:13.993Z,14.22
2019-04-20T17:35:57.335Z,14.02
2019-04-20T17:38:36.170Z,14.71
2019-04-20T17:41:22.408Z,14.73
2019-04-20T17:44:05.893Z,14.92
2019-04-20T17:46:47.652Z,15.35
2019-04-20T17:49:19.735Z,15.71
2019-04-20T17:52:06.263Z,16.42
2019-04-20T17:54:27.844Z,16.79
2019-04-20T17:56:56.324Z,16.81
2019-04-20T17:59:47.226Z,16.87
2019-04-20T18:02:58.580Z,17.44
2019-04-20T18:06:03.377Z,17.86
2019-04-20T18:08:29.729Z,18.10
2019-04-20T18:10:57.331Z,18.90
2019-04-20T18:13:22.468Z,19.44
2019-04-20T18:16:12.742Z,19.93
2019-04-20T18:18:52.877Z,20.70
2019-04-20T18:21:28.646Z,21.51
2019-04-20T18:23:58.387Z,22.40
2019-04-20T18:26:48.039Z,23.61
2019-04-20T18:29:37.330Z,24.34
2019-04-20T18:32:15.632Z,23.84
2019-04-20T18:35:40.446Z,24.16
2019-04-20T18:38:07.699Z,24.34
2019-04-20T18:40:41.578Z,25.18
2019-04-20T18:43:08.225Z,25.52
2019-04-20T18:45:53.447Z,25.35
2019-04-20T18:48:24.986Z,25.79
2019-04-20T18:50:40.340Z,26.69
2019-04-20T18:53:14.789Z,26.71
2019-04-20T18:55:43.741Z,26.94
2019-04-20T18:58:06.932Z,27.42
2019-04-20T19:00:40.789Z,27.80
2019-04-20T19:03:12.035Z,27.92
2019-04-20T19:05:35.759Z,28.09
2019-04-20T19:08:08.434Z,28.22
2019-04-20T19:10:36.175Z,28.40
2019-04-20T19:13:08.105Z,28.83
2019-04-20T19:16:00.257Z,29.31
2019-04-20T19:18:50.711Z,29.58
2019-04-20T19:21:05.248Z,29.94
2019-04-20T19:23:36.666Z,30.39
2019-04-20T19:26:09.623Z,30.70
2019-04-20T19:28:42.193Z,30.74
2019-04-20T19:31:17.604Z,31.09
2019-04-20T19:33:54.696Z,31.23
2019-04-20T19:36:15.198Z,31.34
2019-04-20T19:38:43.007Z,31.60
2019-04-20T19:41:16.408Z,31.84
2019-04-20T19:43:35.773Z,32.05
2019-04-20T19:46:34.906Z,32.21
2019-04-20T19:48:39.304Z,32.34
2019-04-20T19:51:24.054Z,32.45
2019-04-20T19:53:58.733Z,32.52
2019-04-20T19:56:16.982Z,32.48
2019-04-20T19:58:49.691Z,32.59
2019-04-20T20:01:02.901Z,32.71
2019-04-20T20:03:30.499Z,32.84
2019-04-20T20:05:59.668Z,32.82
2019-04-20T20:08:29.947Z,33.34
2019-04-20T20:11:00.837Z,33.29
2019-04-20T20:13:34.584Z,33.70
2019-04-20T20:16:09.008Z,33.65
2019-04-20T20:18:39.299Z,34.07
2019-04-20T20:21:07.345Z,34.46
2019-04-20T20:23:23.905Z,34.84
2019-04-20T20:25:51.472Z,34.97
2019-04-20T20:28:32.272Z,34.85
2019-04-20T20:31:05.059Z,34.90
2019-04-20T20:33:39.636Z,35.15
2019-04-20T20:36:05.620Z,34.96
2019-04-20T20:38:33.984Z,35.07
2019-04-20T20:41:10.582Z,35.17
2019-04-20T20:43:40.745Z,35.26
2019-04-20T20:46:06.488Z,35.38
2019-04-20T20:48:38.764Z,35.30
2019-04-20T20:51:13.592Z,35.44
2019-04-20T20:53:38.733Z,35.63
2019-04-20T20:56:06.272Z,35.76
2019-04-20T20:58:43.079Z,35.67
2019-04-20T21:01:04.374Z,35.97
2019-04-20T21:03:32.188Z,35.84
2019-04-20T21:05:55.601Z,35.97
2019-04-20T21:08:23.905Z,36.00
2019-04-20T21:10:52.697Z,36.18
2019-04-20T21:13:21.466Z,36.22
2019-04-20T21:15:53.898Z,36.58
2019-04-20T21:18:36.888Z,36.57
2019-04-20T21:21:06.439Z,36.61
2019-04-20T21:23:35.301Z,36.45
2019-04-20T21:26:06.886Z,36.62
2019-04-20T21:28:36.246Z,36.77
2019-04-20T21:31:12.522Z,36.79
2019-04-20T21:33:40.113Z,37.06
2019-04-20T21:36:07.153Z,37.02
2019-04-20T21:38:39.348Z,37.22
2019-04-20T21:41:09.410Z,37.44
2019-04-20T21:43:37.285Z,37.86
2019-04-20T21:46:05.480Z,37.90
2019-04-20T21:48:49.207Z,38.14
2019-04-20T21:51:16.605Z,38.47
2019-04-20T21:53:33.375Z,38.54
2019-04-20T21:55:59.785Z,38.80
2019-04-20T21:58:33.277Z,38.66
2019-04-20T22:01:08.071Z,38.94
2019-04-20T22:03:30.000Z,39.02
2019-04-20T22:06:07.054Z,39.33
2019-04-20T22:08:39.436Z,39.60
2019-04-20T22:11:06.308Z,39.73
2019-04-20T22:13:38.891Z,39.87
2019-04-20T22:16:07.284Z,40.10
2019-04-20T22:18:46.363Z,40.30
2019-04-20T22:21:11.195Z,40.39
2019-04-20T22:23:49.237Z,40.12
2019-04-20T22:26:12.077Z,39.96
2019-04-20T22:28:29.757Z,40.05
2019-04-20T22:30:57.979Z,40.11
2019-04-20T22:33:36.568Z,40.29
2019-04-20T22:36:04.497Z,40.46
2019-04-20T22:39:07.522Z,40.59
2019-04-20T22:41:40.876Z,41.19
2019-04-20T22:44:15.158Z,41.71
2019-04-20T22:46:40.873Z,42.09
2019-04-20T22:49:26.892Z,42.33
2019-04-20T22:51:48.216Z,42.21
2019-04-20T22:54:23.267Z,42.37
2019-04-20T22:56:47.266Z,42.48
2019-04-20T22:59:12.725Z,42.75
2019-04-20T23:01:44.434Z,42.86
2019-04-20T23:04:06.394Z,42.84
2019-04-20T23:06:40.149Z,42.64
2019-04-20T23:09:10.324Z,42.80
2019-04-20T23:11:37.150Z,42.92
2019-04-20T23:14:04.930Z,43.08
2019-04-20T23:16:37.846Z,43.11
2019-04-20T23:19:02.439Z,43.05
2019-04-20T23:21:29.977Z,43.40
2019-04-20T23:24:01.585Z,43.65
2019-04-20T23:26:33.493Z,43.54
2019-04-20T23:28:58.725Z,43.40
2019-04-20T23:31:25.673Z,43.38
2019-04-20T23:33:53.959Z,43.53
2019-04-20T23:36:30.695Z,43.66
2019-04-20T23:38:54.733Z,43.92
2019-04-20T23:41:21.882Z,43.83
2019-04-20T23:44:03.815Z,43.92
2019-04-20T23:46:47.865Z,43.95
2019-04-20T23:49:34.155Z,44.05
2019-04-20T23:52:29.591Z,44.12
2019-04-20T23:54:30.230Z,44.24
2019-04-20T23:56:57.533Z,44.34
2019-04-20T23:59:32.365Z,44.42
